Time;durP1;ratioP1;P1;durP2;ratioP2;P2;SDS_P1;SDS_P2;PMS_P1;PMS_P2;Temp;Humidity;BMP_temperature;BMP_pressure;BME280_temperature;BME280_humidity;BME280_pressure;Samples;Min_cycle;Max_cycle;Signal;HPM_P1;HPM_P2
2022/07/18 00:00:33;;;;;;;6.70;4.20;;;;;;;15.57;71.21;95686.97;5023266;28;20048;-64
2022/07/18 00:03:00;;;;;;;4.85;3.78;;;;;;;15.33;71.85;95686.38;5024066;28;20536;-64
2022/07/18 00:05:28;;;;;;;5.30;3.63;;;;;;;15.13;72.26;95686.84;5023816;28;20073;-63
2022/07/18 00:07:56;;;;;;;4.95;3.42;;;;;;;14.88;72.91;95680.16;5022411;28;20046;-65
2022/07/18 00:10:23;;;;;;;4.18;3.25;;;;;;;14.91;73.04;95695.41;5024404;28;20087;-63
2022/07/18 00:12:50;;;;;;;9.70;3.65;;;;;;;14.96;72.68;95692.84;5022320;28;20076;-64
2022/07/18 00:15:17;;;;;;;8.07;3.35;;;;;;;15.06;73.10;95682.53;5023454;28;20087;-65
2022/07/18 00:17:44;;;;;;;6.07;3.75;;;;;;;15.11;73.15;95679.22;5020146;28;20590;-65
2022/07/18 00:20:11;;;;;;;5.25;3.65;;;;;;;15.05;74.10;95675.72;5024021;28;20052;-64
2022/07/18 00:22:38;;;;;;;5.57;3.13;;;;;;;15.02;75.20;95686.69;5022852;28;20485;-64
2022/07/18 00:25:06;;;;;;;6.03;3.45;;;;;;;14.99;75.61;95681.91;5024205;28;20051;-64
2022/07/18 00:27:33;;;;;;;5.30;3.38;;;;;;;15.10;75.99;95678.41;5022888;28;20481;-64
2022/07/18 00:30:00;;;;;;;4.55;3.28;;;;;;;15.20;75.60;95677.00;5022052;28;20042;-64
2022/07/18 00:32:27;;;;;;;5.93;4.53;;;;;;;15.28;75.27;95679.19;5023680;28;20049;-64
2022/07/18 00:34:54;;;;;;;6.45;3.70;;;;;;;15.33;76.08;95681.91;5021516;28;20478;-64
2022/07/18 00:37:20;;;;;;;7.88;4.03;;;;;;;15.30;75.83;95682.38;5023649;28;20404;-66
2022/07/18 00:39:47;;;;;;;7.78;3.00;;;;;;;15.20;75.87;95682.25;5024390;28;20172;-64
2022/07/18 00:42:14;;;;;;;5.30;3.97;;;;;;;15.04;76.14;95682.00;5024814;28;20435;-66
2022/07/18 00:44:41;;;;;;;9.65;3.63;;;;;;;14.95;76.58;95675.53;5019795;28;20527;-66
2022/07/18 00:47:08;;;;;;;5.95;3.75;;;;;;;14.85;78.01;95680.63;5024281;28;20053;-66
2022/07/18 00:49:34;;;;;;;7.10;4.35;;;;;;;14.65;79.01;95681.84;5025075;28;20051;-64
2022/07/18 00:52:01;;;;;;;9.77;3.50;;;;;;;14.50;79.75;95684.19;5019825;28;20084;-64
2022/07/18 00:54:31;;;;;;;6.05;3.63;;;;;;;14.41;80.32;95685.59;5023311;28;20069;-64
2022/07/18 00:56:59;;;;;;;5.25;3.47;;;;;;;14.32;80.60;95683.31;5021021;28;20119;-64
2022/07/18 01:01:42;;;;;;;9.48;3.28;;;;;;;14.09;80.96;95657.19;5023541;28;20053;-65
2022/07/18 01:02:13;;;;;;;5.63;3.65;;;;;;;14.08;81.53;95676.56;5022243;28;20045;-64
2022/07/18 01:04:40;;;;;;;5.85;3.38;;;;;;;14.10;82.13;95680.53;5017451;28;20045;-64
2022/07/18 01:07:07;;;;;;;5.55;3.25;;;;;;;14.07;82.12;95685.44;5022770;28;20049;-65
2022/07/18 01:09:34;;;;;;;9.55;3.97;;;;;;;14.07;82.31;95680.22;5023061;28;20128;-64
2022/07/18 01:12:02;;;;;;;5.70;3.15;;;;;;;14.09;82.26;95688.63;5020391;28;20545;-64
2022/07/18 01:14:31;;;;;;;3.70;3.03;;;;;;;14.08;82.23;95687.03;5022217;28;20508;-64
2022/07/18 01:16:58;;;;;;;4.57;3.45;;;;;;;14.01;82.13;95681.13;5021811;28;20080;-66
2022/07/18 01:19:24;;;;;;;5.75;3.78;;;;;;;13.95;82.19;95667.94;5020917;28;20042;-64
2022/07/18 01:21:51;;;;;;;8.68;3.88;;;;;;;13.88;82.22;95667.28;5022012;28;20469;-65
2022/07/18 01:24:18;;;;;;;8.95;3.45;;;;;;;13.88;83.08;95683.00;5022463;28;20051;-64
2022/07/18 01:26:45;;;;;;;6.43;3.20;;;;;;;13.85;83.35;95686.06;5022536;28;20049;-64
2022/07/18 01:29:12;;;;;;;5.40;3.92;;;;;;;13.78;83.97;95688.00;5023093;28;20042;-63
2022/07/18 01:31:38;;;;;;;7.18;3.40;;;;;;;13.70;84.81;95688.34;5022264;28;20041;-65
2022/07/18 01:34:05;;;;;;;5.32;4.03;;;;;;;13.63;85.55;95691.09;5022719;28;20141;-64
2022/07/18 01:36:33;;;;;;;8.15;3.72;;;;;;;13.57;85.18;95687.56;5022420;28;20510;-65
2022/07/18 01:39:00;;;;;;;10.70;3.55;;;;;;;13.56;85.91;95685.97;5021900;28;20045;-65
2022/07/18 01:41:27;;;;;;;7.13;3.38;;;;;;;13.49;85.79;95695.75;5022534;28;20518;-65
2022/07/18 01:43:54;;;;;;;7.55;3.75;;;;;;;13.45;85.48;95694.63;5022249;28;20049;-64
2022/07/18 01:46:20;;;;;;;5.75;3.65;;;;;;;13.36;85.20;95690.72;5022280;28;20540;-65
2022/07/18 01:48:47;;;;;;;11.45;4.30;;;;;;;13.28;85.16;95691.06;5021806;28;20038;-64
2022/07/18 01:51:14;;;;;;;4.20;3.13;;;;;;;13.23;85.10;95690.94;5020511;28;20545;-65
2022/07/18 01:53:42;;;;;;;7.45;3.47;;;;;;;13.16;85.18;95691.84;5022848;28;20034;-65
2022/07/18 01:56:12;;;;;;;6.32;3.83;;;;;;;13.09;84.63;95696.38;5022416;28;20045;-64
2022/07/18 01:58:39;;;;;;;6.38;3.53;;;;;;;12.97;85.44;95698.97;5021925;28;20072;-64
2022/07/18 02:01:06;;;;;;;5.72;3.33;;;;;;;12.91;85.00;95691.22;5022334;28;20037;-66
2022/07/18 02:03:33;;;;;;;4.20;3.17;;;;;;;12.86;84.42;95701.56;5020982;28;20046;-64
2022/07/18 02:05:59;;;;;;;7.47;3.25;;;;;;;12.79;84.97;95704.28;5020591;28;20064;-65
2022/07/18 02:08:26;;;;;;;7.47;3.30;;;;;;;12.77;83.68;95699.25;5022168;28;20069;-64
2022/07/18 02:10:53;;;;;;;7.38;3.53;;;;;;;12.74;84.25;95710.16;5022083;28;20625;-64
2022/07/18 02:13:20;;;;;;;5.13;3.78;;;;;;;12.62;85.08;95701.47;5022188;28;20051;-65
2022/07/18 02:15:48;;;;;;;5.97;3.03;;;;;;;12.53;86.05;95697.56;5021975;28;20111;-64
2022/07/18 02:18:15;;;;;;;4.95;3.30;;;;;;;12.50;86.81;95698.03;5020462;28;20077;-65
2022/07/18 02:20:42;;;;;;;6.57;3.40;;;;;;;12.50;86.73;95703.25;5022329;28;20048;-64
2022/07/18 02:23:09;;;;;;;5.22;3.20;;;;;;;12.49;86.58;95712.13;5021344;28;20046;-64
2022/07/18 02:25:36;;;;;;;4.80;3.30;;;;;;;12.40;86.39;95720.25;5020798;28;20048;-64
2022/07/18 02:28:04;;;;;;;8.95;5.00;;;;;;;12.33;86.25;95719.53;5020347;28;20045;-64
2022/07/18 02:30:31;;;;;;;5.53;3.35;;;;;;;12.25;86.67;95717.22;5021509;28;20052;-64
2022/07/18 02:32:58;;;;;;;7.30;3.35;;;;;;;12.16;86.98;95713.31;5021153;28;20050;-65
2022/07/18 02:35:25;;;;;;;10.13;4.35;;;;;;;12.05;87.85;95715.63;5021592;28;20046;-65
2022/07/18 02:37:53;;;;;;;5.20;3.92;;;;;;;11.97;88.12;95720.34;5017718;28;20042;-64
2022/07/18 02:40:19;;;;;;;9.55;4.70;;;;;;;11.83;88.90;95724.91;5033682;28;20073;-64
2022/07/18 02:42:46;;;;;;;8.35;4.45;;;;;;;11.73;90.31;95724.59;5021751;28;20080;-64
2022/07/18 02:45:14;;;;;;;6.50;4.03;;;;;;;11.66;90.22;95720.22;5019847;28;20059;-64
2022/07/18 02:47:41;;;;;;;9.25;4.95;;;;;;;11.61;90.45;95717.47;5021992;28;20514;-64
2022/07/18 02:50:09;;;;;;;5.47;3.45;;;;;;;11.52;89.78;95713.53;5019671;28;20045;-64
2022/07/18 02:52:36;;;;;;;7.22;2.85;;;;;;;11.49;87.94;95719.19;5021001;28;20045;-65
2022/07/18 02:55:04;;;;;;;5.40;2.50;;;;;;;11.46;86.25;95725.63;5020879;28;20052;-64
2022/07/18 02:57:31;;;;;;;14.75;3.17;;;;;;;11.39;84.08;95727.47;5020956;28;20057;-64
2022/07/18 02:59:58;;;;;;;4.45;2.50;;;;;;;11.26;84.39;95720.56;5021102;28;20056;-63
2022/07/18 03:02:25;;;;;;;6.05;3.10;;;;;;;11.14;85.09;95717.06;5020557;28;20554;-63
2022/07/18 03:04:52;;;;;;;5.95;3.40;;;;;;;11.02;84.98;95729.16;5020749;28;20049;-65
2022/07/18 03:07:19;;;;;;;7.43;3.80;;;;;;;10.98;83.97;95733.22;5020796;28;20131;-64
2022/07/18 03:09:46;;;;;;;9.82;2.90;;;;;;;10.96;83.91;95740.44;5018846;28;20064;-64
2022/07/18 03:12:13;;;;;;;4.28;2.83;;;;;;;10.90;84.65;95748.09;5020523;28;20049;-66
2022/07/18 03:14:40;;;;;;;15.38;3.22;;;;;;;10.84;84.83;95732.50;5020181;28;20543;-64
2022/07/18 03:17:07;;;;;;;10.55;3.95;;;;;;;10.96;84.60;95732.63;5048160;28;20049;-65
2022/07/18 03:19:35;;;;;;;9.43;3.00;;;;;;;10.99;84.61;95737.44;5019170;28;20045;-64
2022/07/18 03:22:03;;;;;;;10.93;3.35;;;;;;;10.89;84.00;95727.44;5019593;28;20041;-65
2022/07/18 03:24:31;;;;;;;9.23;2.80;;;;;;;10.86;85.02;95736.50;5020008;28;20049;-64
2022/07/18 03:26:58;;;;;;;10.88;4.15;;;;;;;10.87;85.35;95743.28;5019133;28;20059;-64
2022/07/18 03:29:25;;;;;;;11.63;2.90;;;;;;;10.92;84.83;95739.28;5020558;28;20048;-64
2022/07/18 03:31:52;;;;;;;4.63;2.83;;;;;;;10.93;84.74;95746.06;5018805;28;20273;-64
2022/07/18 03:34:19;;;;;;;12.32;2.95;;;;;;;10.86;84.33;95741.72;5019655;28;20518;-65
2022/07/18 03:36:45;;;;;;;6.53;3.33;;;;;;;10.85;84.94;95734.09;5020406;28;20048;-64
2022/07/18 03:39:12;;;;;;;5.22;3.38;;;;;;;10.70;85.63;95727.38;5020335;28;20046;-64
2022/07/18 03:41:39;;;;;;;9.10;3.80;;;;;;;10.84;85.79;95743.72;5019176;28;20052;-65
2022/07/18 03:44:07;;;;;;;7.10;4.32;;;;;;;10.88;84.83;95750.13;5018883;28;20077;-65
2022/07/18 03:46:34;;;;;;;5.10;2.92;;;;;;;10.76;85.29;95751.78;5018567;28;20045;-64
2022/07/18 03:49:02;;;;;;;7.47;2.85;;;;;;;10.79;85.97;95745.38;5017349;28;21094;-63
2022/07/18 03:51:29;;;;;;;4.85;2.50;;;;;;;10.94;84.36;95742.47;5020870;28;20049;-64
2022/07/18 03:53:55;;;;;;;6.53;2.10;;;;;;;11.02;84.74;95745.63;5018547;28;20136;-65
2022/07/18 03:56:22;;;;;;;7.90;2.97;;;;;;;11.06;84.02;95743.41;5019547;28;20558;-64
2022/07/18 03:58:49;;;;;;;5.47;2.58;;;;;;;11.09;83.20;95745.56;5021260;28;20060;-65
2022/07/18 04:01:16;;;;;;;14.13;2.47;;;;;;;10.95;82.79;95713.59;5020909;28;20049;-62
2022/07/18 04:03:43;;;;;;;6.10;2.17;;;;;;;11.34;80.49;95763.03;5022460;28;20044;-64
2022/07/18 04:06:10;;;;;;;5.18;2.10;;;;;;;11.50;80.25;95762.50;5021558;28;20091;-64
2022/07/18 04:08:37;;;;;;;7.03;2.33;;;;;;;11.65;78.31;95763.00;5019886;28;20041;-65
2022/07/18 04:11:04;;;;;;;8.43;2.50;;;;;;;11.81;74.32;95760.84;5018868;28;20293;-67
2022/07/18 04:13:31;;;;;;;4.80;2.13;;;;;;;11.98;74.38;95759.28;5020777;28;20076;-65
2022/07/18 04:15:58;;;;;;;4.07;2.88;;;;;;;12.12;74.16;95761.75;5020928;28;20076;-64
2022/07/18 04:18:25;;;;;;;7.07;2.38;;;;;;;12.19;74.45;95759.88;5018724;28;20052;-64
2022/07/18 04:20:51;;;;;;;8.45;3.35;;;;;;;12.32;73.99;95754.50;5019151;28;20037;-65
2022/07/18 04:23:18;;;;;;;6.00;1.95;;;;;;;12.38;75.01;95764.06;5019925;28;20052;-64
2022/07/18 04:25:45;;;;;;;7.93;2.30;;;;;;;12.58;75.02;95763.03;5019589;28;20450;-64
2022/07/18 04:28:14;;;;;;;8.18;2.38;;;;;;;12.69;74.92;95754.44;5023406;28;20125;-64
2022/07/18 04:30:42;;;;;;;12.70;2.55;;;;;;;12.81;74.15;95759.75;5023793;28;20052;-65
2022/07/18 04:33:11;;;;;;;6.57;3.50;;;;;;;12.82;74.46;95759.53;5023290;28;20430;-65
2022/07/18 04:35:39;;;;;;;10.15;2.53;;;;;;;12.93;74.29;95754.56;5023745;28;20181;-65
2022/07/18 04:38:08;;;;;;;5.65;2.45;;;;;;;13.05;73.56;95755.38;5020504;28;20145;-64
2022/07/18 04:40:35;;;;;;;11.13;3.75;;;;;;;13.12;72.03;95748.22;5020851;28;20399;-64
2022/07/18 04:43:03;;;;;;;7.88;2.90;;;;;;;13.24;71.86;95750.09;5022797;28;20033;-63
2022/07/18 04:45:29;;;;;;;9.13;2.13;;;;;;;13.26;72.71;95742.81;5021217;28;20454;-65
2022/07/18 04:47:56;;;;;;;4.53;2.20;;;;;;;13.34;73.32;95745.94;5021904;28;20485;-64
2022/07/18 04:50:24;;;;;;;5.35;2.60;;;;;;;13.41;72.68;95745.00;5021812;28;20041;-65
2022/07/18 04:52:52;;;;;;;5.60;2.42;;;;;;;13.56;70.37;95748.78;5021962;28;20049;-65
2022/07/18 04:55:21;;;;;;;6.85;2.13;;;;;;;13.66;69.80;95757.91;5022835;28;20045;-64
2022/07/18 04:57:49;;;;;;;3.13;1.42;;;;;;;13.80;69.05;95748.78;5021051;28;20455;-62
2022/07/18 05:00:19;;;;;;;3.72;1.58;;;;;;;13.85;69.32;95743.66;5021783;28;20513;-63
2022/07/18 05:02:50;;;;;;;4.80;1.92;;;;;;;14.01;67.92;95743.97;5022595;28;20053;-63
2022/07/18 05:05:19;;;;;;;11.18;1.83;;;;;;;14.14;67.78;95738.50;5022597;28;20047;-63
2022/07/18 05:07:47;;;;;;;4.00;1.70;;;;;;;14.21;67.29;95733.94;5022449;28;20056;-63
2022/07/18 05:10:18;;;;;;;5.60;2.67;;;;;;;14.28;66.70;95750.34;5021926;28;20124;-64
2022/07/18 05:12:46;;;;;;;3.30;1.73;;;;;;;14.41;66.29;95740.63;5022239;28;20056;-63
2022/07/18 05:15:15;;;;;;;7.15;2.35;;;;;;;14.43;67.45;95747.22;5021557;28;20050;-64
2022/07/18 05:17:43;;;;;;;7.05;2.13;;;;;;;14.62;67.04;95750.50;5022473;28;20073;-65
2022/07/18 05:20:16;;;;;;;3.78;1.83;;;;;;;14.69;67.34;95756.41;5020673;28;20514;-65
2022/07/18 05:22:43;;;;;;;9.27;2.28;;;;;;;14.84;67.25;95748.00;5022598;28;20042;-65
2022/07/18 05:25:11;;;;;;;4.18;2.10;;;;;;;15.00;65.45;95743.84;5021591;28;20068;-65
2022/07/18 05:27:39;;;;;;;5.72;2.50;;;;;;;15.02;65.47;95741.78;5022242;28;20140;-65
2022/07/18 05:30:10;;;;;;;8.32;2.03;;;;;;;15.16;64.54;95759.81;5045560;28;20046;-64
2022/07/18 05:32:39;;;;;;;2.95;1.70;;;;;;;15.23;64.59;95755.22;5020771;28;20037;-63
2022/07/18 05:35:08;;;;;;;4.65;1.85;;;;;;;15.40;64.81;95750.78;5020388;28;20052;-64
2022/07/18 05:37:35;;;;;;;3.90;1.90;;;;;;;15.52;64.84;95752.53;5021694;28;20050;-64
2022/07/18 05:40:04;;;;;;;5.28;1.73;;;;;;;15.65;62.01;95762.72;5021877;28;20424;-64
2022/07/18 05:42:31;;;;;;;3.00;1.98;;;;;;;15.73;61.68;95759.69;5021587;28;20045;-64
2022/07/18 05:45:18;;;;;;;2.60;1.58;;;;;;;15.84;60.43;95761.44;5020876;28;20496;-65
2022/07/18 05:47:45;;;;;;;3.70;1.50;;;;;;;15.90;60.38;95758.88;5019198;28;20049;-64
2022/07/18 05:50:12;;;;;;;4.45;2.17;;;;;;;16.02;61.03;95756.97;5021479;28;20033;-65
2022/07/18 05:52:38;;;;;;;4.72;1.55;;;;;;;16.18;59.08;95753.50;5021722;28;20050;-64
2022/07/18 05:55:06;;;;;;;4.15;2.08;;;;;;;16.33;58.14;95747.66;5021492;28;20099;-65
2022/07/18 05:57:34;;;;;;;5.40;1.77;;;;;;;16.50;57.47;95752.84;5021395;28;20519;-64
2022/07/18 06:00:04;;;;;;;25.90;3.22;;;;;;;16.69;55.86;95760.41;5021580;28;20445;-65
2022/07/18 06:02:34;;;;;;;6.57;1.67;;;;;;;16.77;56.75;95757.34;5019144;28;20125;-64
2022/07/18 06:05:01;;;;;;;4.57;1.70;;;;;;;16.88;55.81;95759.06;5020069;28;20056;-65
2022/07/18 06:07:48;;;;;;;17.20;2.05;;;;;;;16.99;54.85;95755.47;5049237;28;20080;-65
2022/07/18 06:10:14;;;;;;;7.72;1.40;;;;;;;17.01;55.28;95757.88;5021512;28;20069;-66
2022/07/18 06:12:41;;;;;;;6.28;1.55;;;;;;;17.25;51.22;95758.38;5020671;28;20438;-66
2022/07/18 06:15:09;;;;;;;9.43;2.63;;;;;;;17.30;50.43;95754.97;5021055;28;20061;-66
2022/07/18 06:17:36;;;;;;;3.33;1.75;;;;;;;17.43;48.94;95748.50;5021594;28;20046;-64
2022/07/18 06:20:05;;;;;;;6.38;1.30;;;;;;;17.52;49.91;95753.06;5020314;28;20044;-65
2022/07/18 06:22:32;;;;;;;5.90;2.08;;;;;;;17.69;50.06;95747.63;5021356;28;20041;-66
2022/07/18 06:24:59;;;;;;;10.48;3.00;;;;;;;17.77;50.31;95749.81;5021213;28;20062;-66
2022/07/18 06:27:26;;;;;;;9.48;1.40;;;;;;;17.87;50.60;95743.81;5022012;28;20094;-66
2022/07/18 06:29:52;;;;;;;3.15;1.80;;;;;;;18.04;50.01;95743.69;5021184;28;20168;-65
2022/07/18 06:32:19;;;;;;;8.15;1.92;;;;;;;18.19;51.35;95739.53;5021292;28;20071;-65
2022/07/18 06:34:46;;;;;;;12.18;2.08;;;;;;;18.28;52.82;95738.78;5022930;28;20091;-66
2022/07/18 06:37:13;;;;;;;12.75;2.50;;;;;;;18.48;51.68;95743.34;5020560;28;20127;-63
2022/07/18 06:39:40;;;;;;;24.10;2.60;;;;;;;18.61;51.50;95741.28;5021447;28;20045;-63
2022/07/18 06:42:07;;;;;;;4.57;1.70;;;;;;;18.61;47.91;95736.00;5019011;28;20060;-63
2022/07/18 06:44:34;;;;;;;13.40;2.10;;;;;;;18.66;49.59;95739.44;5021771;28;20053;-63
2022/07/18 06:47:01;;;;;;;10.52;1.48;;;;;;;18.95;47.47;95740.88;5021691;28;20053;-64
2022/07/18 06:49:27;;;;;;;11.75;2.03;;;;;;;19.09;47.47;95742.72;5020822;28;20053;-63
2022/07/18 06:51:54;;;;;;;7.63;1.60;;;;;;;19.21;47.54;95739.84;5021327;28;20408;-64
2022/07/18 06:54:30;;;;;;;3.65;1.42;;;;;;;19.36;47.37;95735.63;5020914;28;20053;-64
2022/07/18 06:56:58;;;;;;;6.95;1.73;;;;;;;19.60;45.88;95736.66;5020819;28;20052;-64
2022/07/18 06:59:25;;;;;;;7.38;2.13;;;;;;;19.80;45.70;95735.88;5020588;28;20041;-64
2022/07/18 07:01:52;;;;;;;6.32;1.85;;;;;;;20.01;45.17;95731.34;5020055;28;20276;-65
2022/07/18 07:04:19;;;;;;;6.32;1.63;;;;;;;20.30;46.45;95737.88;5018687;28;20103;-65
2022/07/18 07:06:46;;;;;;;8.30;1.40;;;;;;;20.61;44.83;95733.25;5020770;28;20567;-64
2022/07/18 07:09:12;;;;;;;4.70;1.65;;;;;;;20.85;43.71;95741.34;5020486;28;20058;-66
2022/07/18 07:11:41;;;;;;;5.03;1.52;;;;;;;21.01;43.56;95747.31;5020176;28;20049;-64
2022/07/18 07:14:08;;;;;;;3.17;1.65;;;;;;;21.22;43.72;95755.16;5019802;28;20149;-65
2022/07/18 07:16:35;;;;;;;18.63;2.30;;;;;;;21.40;44.76;95749.19;5019040;28;20132;-64
2022/07/18 07:19:02;;;;;;;10.00;2.53;;;;;;;21.55;42.67;95746.44;5018715;28;20053;-64
2022/07/18 07:21:29;;;;;;;6.90;1.25;;;;;;;21.79;42.81;95755.50;5019917;28;20132;-65
2022/07/18 07:23:56;;;;;;;7.38;1.33;;;;;;;21.84;40.18;95742.19;5020454;28;20072;-64
2022/07/18 07:26:23;;;;;;;3.70;1.38;;;;;;;22.03;38.49;95750.25;5019650;28;20041;-64
2022/07/18 07:28:50;;;;;;;4.05;1.73;;;;;;;21.98;39.37;95745.00;5020284;28;20041;-65
2022/07/18 07:31:17;;;;;;;3.17;0.90;;;;;;;22.11;39.03;95746.97;5020588;28;20045;-64
2022/07/18 07:33:44;;;;;;;5.15;1.35;;;;;;;22.24;36.91;95751.59;5020328;28;20045;-64
2022/07/18 07:36:11;;;;;;;3.30;1.30;;;;;;;22.24;36.34;95751.59;5028490;28;20061;-64
2022/07/18 07:38:38;;;;;;;6.35;1.50;;;;;;;22.43;37.04;95745.59;5020644;28;20055;-66
2022/07/18 07:41:06;;;;;;;4.43;1.38;;;;;;;22.57;36.63;95738.50;5020611;28;20347;-67
2022/07/18 07:43:36;;;;;;;5.97;1.40;;;;;;;22.84;37.41;95739.75;5021541;28;20049;-72
2022/07/18 07:46:03;;;;;;;4.45;1.23;;;;;;;22.75;35.01;95744.91;5019411;28;20033;-71
2022/07/18 07:48:30;;;;;;;2.50;1.35;;;;;;;22.83;35.06;95740.81;5019650;28;20049;-70
2022/07/18 07:50:57;;;;;;;6.95;1.75;;;;;;;23.04;34.62;95746.66;5018354;28;20514;-71
2022/07/18 07:53:24;;;;;;;4.63;1.65;;;;;;;23.26;34.56;95748.75;5017188;28;20065;-70
2022/07/18 07:55:51;;;;;;;7.07;4.53;;;;;;;23.17;33.52;95742.50;5017195;28;20522;-71
2022/07/18 07:58:18;;;;;;;4.35;0.98;;;;;;;23.20;33.21;95739.28;5017713;28;20053;-71
2022/07/18 08:00:45;;;;;;;5.43;1.20;;;;;;;23.29;33.66;95748.16;5017647;28;20044;-70
2022/07/18 08:03:12;;;;;;;1.85;1.00;;;;;;;23.52;34.50;95737.72;5022634;28;20081;-71
2022/07/18 08:05:49;;;;;;;2.38;1.13;;;;;;;23.80;33.32;95747.34;5022476;28;20073;-71
2022/07/18 08:08:17;;;;;;;8.13;1.45;;;;;;;23.96;32.83;95739.13;5021570;28;20044;-71
2022/07/18 08:10:44;;;;;;;4.82;1.27;;;;;;;24.10;30.97;95750.56;5020488;28;20407;-71
2022/07/18 08:13:12;;;;;;;3.70;1.10;;;;;;;24.07;31.44;95743.16;5022298;28;20045;-70
2022/07/18 08:15:39;;;;;;;12.73;1.52;;;;;;;24.17;30.30;95748.28;5022998;28;20041;-71
2022/07/18 08:18:06;;;;;;;5.28;1.65;;;;;;;23.84;31.86;95745.72;5022607;28;20049;-70
2022/07/18 08:20:34;;;;;;;2.47;0.90;;;;;;;23.38;32.03;95740.34;5020113;28;20369;-71
2022/07/18 08:23:10;;;;;;;2.30;1.13;;;;;;;23.49;32.02;95736.41;5024061;28;20129;-70
2022/07/18 08:25:40;;;;;;;2.50;1.40;;;;;;;23.80;33.24;95742.03;5022521;28;20072;-70
2022/07/18 08:28:07;;;;;;;6.38;1.20;;;;;;;24.03;31.42;95744.84;5020822;28;20041;-71
2022/07/18 08:30:35;;;;;;;2.83;1.10;;;;;;;24.27;32.10;95738.53;5023559;28;20038;-71
2022/07/18 08:33:02;;;;;;;2.10;1.23;;;;;;;24.58;32.22;95744.88;5022669;28;20048;-71
2022/07/18 08:35:29;;;;;;;4.10;1.17;;;;;;;24.92;31.03;95738.28;5024320;28;20103;-71
2022/07/18 08:37:56;;;;;;;1.75;1.10;;;;;;;25.16;30.57;95742.56;5021517;28;20045;-72
2022/07/18 08:40:24;;;;;;;2.92;1.17;;;;;;;25.45;31.29;95744.06;5023509;28;20044;-71
2022/07/18 08:42:52;;;;;;;2.97;0.93;;;;;;;25.60;30.34;95738.34;5024475;28;20048;-71
2022/07/18 08:45:42;;;;;;;2.35;1.20;;;;;;;25.59;29.24;95744.78;5024025;28;20107;-70
2022/07/18 08:48:13;;;;;;;2.63;1.38;;;;;;;25.62;28.98;95722.81;5023545;28;20045;-71
2022/07/18 08:50:44;;;;;;;2.13;1.50;;;;;;;25.80;29.83;95744.25;5023358;28;20044;-71
2022/07/18 08:53:12;;;;;;;1.92;1.13;;;;;;;25.82;29.32;95736.72;5022875;28;20566;-71
2022/07/18 08:55:39;;;;;;;3.60;1.50;;;;;;;25.42;29.93;95728.66;5022252;28;20076;-71
2022/07/18 08:58:06;;;;;;;2.28;1.30;;;;;;;25.30;30.62;95732.66;5023228;28;20502;-70
2022/07/18 09:00:52;;;;;;;2.60;1.08;;;;;;;25.59;29.58;95727.97;5021254;28;20029;-72
2022/07/18 09:03:19;;;;;;;1.77;1.20;;;;;;;25.60;29.53;95722.34;5022835;28;20116;-71
2022/07/18 09:06:02;;;;;;;7.78;1.52;;;;;;;26.00;30.77;95732.28;5021876;28;20056;-71
2022/07/18 09:08:30;;;;;;;1.67;0.90;;;;;;;26.23;29.15;95730.34;5022498;28;20503;-72
2022/07/18 09:10:59;;;;;;;2.88;1.25;;;;;;;26.36;27.62;95729.44;5023152;28;20041;-72
2022/07/18 09:13:32;;;;;;;3.28;1.67;;;;;;;26.38;27.64;95727.25;5022625;28;20041;-71
2022/07/18 09:16:13;;;;;;;4.75;1.17;;;;;;;25.85;28.04;95720.13;5050385;28;20041;-71
2022/07/18 09:18:43;;;;;;;2.78;1.27;;;;;;;25.72;29.13;95719.91;5020002;28;20052;-71
2022/07/18 09:21:17;;;;;;;5.35;1.60;;;;;;;26.05;29.85;95724.16;5035396;28;20040;-71
2022/07/18 09:23:50;;;;;;;3.00;1.05;;;;;;;26.57;29.53;95718.19;5036628;28;20054;-72
2022/07/18 09:26:45;;;;;;;6.65;1.25;;;;;;;26.95;29.31;95722.97;5021399;28;20069;-71
2022/07/18 09:29:17;;;;;;;7.22;2.28;;;;;;;27.09;27.77;95728.94;5020674;28;20049;-71
2022/07/18 09:31:55;;;;;;;1.80;1.30;;;;;;;26.30;28.49;95714.66;5021328;28;20048;-71
2022/07/18 09:34:35;;;;;;;8.07;1.05;;;;;;;26.58;28.41;95733.09;5022325;28;20511;-71
2022/07/18 09:37:03;;;;;;;2.13;1.08;;;;;;;26.47;28.70;95722.72;5022570;28;20110;-71
2022/07/18 09:39:31;;;;;;;5.97;1.38;;;;;;;26.57;28.05;95728.88;5019245;28;20045;-72
2022/07/18 09:42:18;;;;;;;2.28;1.10;;;;;;;26.46;27.46;95718.47;5022160;28;20049;-71
2022/07/18 09:44:59;;;;;;;2.50;1.77;;;;;;;27.09;27.66;95718.25;5020712;28;20041;-72
2022/07/18 09:47:26;;;;;;;4.38;1.50;;;;;;;27.53;27.95;95716.38;5021818;28;20041;-72
2022/07/18 09:49:54;;;;;;;7.45;1.40;;;;;;;27.76;27.30;95718.81;5020850;28;20509;-72
2022/07/18 09:52:21;;;;;;;4.07;1.58;;;;;;;27.89;26.94;95717.03;5022991;28;20045;-72
2022/07/18 09:54:48;;;;;;;3.13;1.20;;;;;;;27.85;25.88;95719.56;5049372;28;20038;-72
2022/07/18 09:57:26;;;;;;;4.95;1.42;;;;;;;27.97;27.38;95708.25;5021938;28;20034;-72
2022/07/18 09:59:53;;;;;;;3.60;1.50;;;;;;;28.29;26.20;95717.53;5018932;28;20427;-72
2022/07/18 10:02:21;;;;;;;1.98;1.10;;;;;;;28.33;25.40;95710.44;5017432;28;20115;-73
2022/07/18 10:04:49;;;;;;;5.13;1.50;;;;;;;28.10;26.64;95706.44;5020201;28;20095;-71
2022/07/18 10:07:16;;;;;;;2.53;1.20;;;;;;;27.44;26.55;95707.53;5020791;28;20044;-71
2022/07/18 10:09:44;;;;;;;3.88;1.67;;;;;;;27.37;28.07;95701.91;5021953;28;20045;-72
2022/07/18 10:12:14;;;;;;;5.32;1.70;;;;;;;27.38;28.29;95708.84;5020137;28;20525;-72
2022/07/18 10:14:44;;;;;;;3.17;1.27;;;;;;;26.96;28.16;95698.59;5019860;28;20045;-73
2022/07/18 10:17:11;;;;;;;3.75;1.10;;;;;;;27.38;27.95;95687.44;5021520;28;20079;-73
2022/07/18 10:19:38;;;;;;;1.60;1.27;;;;;;;27.50;28.11;95695.59;5020322;28;20551;-72
2022/07/18 10:22:07;;;;;;;4.78;1.70;;;;;;;27.38;28.54;95692.78;5022191;28;20053;-73
2022/07/18 10:24:39;;;;;;;4.47;1.58;;;;;;;27.52;28.47;95690.72;5019164;28;20041;-73
2022/07/18 10:27:15;;;;;;;2.70;1.30;;;;;;;27.72;27.14;95693.81;5018219;28;20140;-70
2022/07/18 10:30:12;;;;;;;3.17;1.50;;;;;;;28.38;27.46;95691.50;5016518;28;20415;-67
2022/07/18 10:32:40;;;;;;;4.22;1.63;;;;;;;28.83;25.89;95684.78;5020340;28;20044;-67
2022/07/18 10:35:08;;;;;;;2.38;1.45;;;;;;;28.68;26.26;95693.38;5020516;28;20045;-67
2022/07/18 10:37:35;;;;;;;4.25;2.22;;;;;;;27.95;27.10;95689.03;5021631;28;20551;-66
2022/07/18 10:40:22;;;;;;;4.65;1.63;;;;;;;28.27;28.38;95682.28;5017987;28;20091;-66
2022/07/18 10:43:30;;;;;;;6.30;1.55;;;;;;;28.71;26.23;95688.16;5021510;28;20037;-67
2022/07/18 10:45:59;;;;;;;2.13;1.65;;;;;;;28.48;27.28;95665.44;5019742;28;20103;-69
2022/07/18 10:48:32;;;;;;;2.60;1.60;;;;;;;28.65;26.94;95680.63;5021125;28;20149;-65
2022/07/18 10:51:06;;;;;;;6.07;1.38;;;;;;;28.67;26.33;95675.75;5019549;28;20056;-67
2022/07/18 10:53:58;;;;;;;1.48;1.10;;;;;;;29.11;26.52;95674.25;5020446;28;20491;-67
2022/07/18 10:56:28;;;;;;;5.88;1.30;;;;;;;29.66;24.02;95672.34;5020101;28;20073;-67
2022/07/18 10:58:56;;;;;;;3.33;1.55;;;;;;;30.36;24.14;95670.72;5019616;28;20045;-67
2022/07/18 11:01:24;;;;;;;3.97;1.30;;;;;;;31.05;23.14;95675.06;5014861;28;20052;-66
2022/07/18 11:04:31;;;;;;;6.45;1.60;;;;;;;31.89;22.99;95668.03;5017658;28;20053;-68
2022/07/18 11:07:06;;;;;;;1.75;1.25;;;;;;;32.03;23.43;95672.94;5019838;28;20536;-68
2022/07/18 11:09:47;;;;;;;4.28;1.45;;;;;;;32.04;22.65;95669.16;5021084;28;20060;-67
2022/07/18 11:12:26;;;;;;;3.47;1.75;;;;;;;31.54;24.00;95667.91;5016875;28;20045;-68
2022/07/18 11:15:12;;;;;;;2.70;1.95;;;;;;;31.54;23.87;95665.22;5018867;28;20458;-68
2022/07/18 11:17:55;;;;;;;2.22;1.70;;;;;;;31.30;23.83;95664.19;5015785;28;20638;-68
2022/07/18 11:20:38;;;;;;;4.68;1.73;;;;;;;30.93;24.27;95664.34;5017975;28;20048;-67
2022/07/18 11:23:20;;;;;;;3.67;2.05;;;;;;;29.97;25.61;95664.91;5015363;28;20045;-68
2022/07/18 11:25:58;;;;;;;2.97;1.70;;;;;;;29.27;25.75;95660.28;5018329;28;20095;-67
2022/07/18 11:28:27;;;;;;;16.15;2.20;;;;;;;28.98;25.74;95660.03;5018421;28;20129;-68
2022/07/18 11:31:17;;;;;;;5.85;1.70;;;;;;;28.93;25.71;95654.09;5019677;28;20357;-68
2022/07/18 11:33:47;;;;;;;1.92;1.52;;;;;;;29.21;26.62;95654.34;5049601;28;20048;-67
2022/07/18 11:36:19;;;;;;;6.63;1.58;;;;;;;29.83;26.37;95644.53;5019809;28;20111;-68
2022/07/18 11:38:55;;;;;;;2.83;1.55;;;;;;;29.39;26.93;95628.13;5024291;28;20430;-68
2022/07/18 11:41:23;;;;;;;5.00;1.45;;;;;;;30.30;24.38;95641.34;5024252;28;20474;-68